Time;durP1;ratioP1;P1;durP2;ratioP2;P2;SDS_P1;SDS_P2;PMS_P1;PMS_P2;Temp;Humidity;BMP_temperature;BMP_pressure;BME280_temperature;BME280_humidity;BME280_pressure;Samples;Min_cycle;Max_cycle;Signal;HPM_P1;HPM_P2
2021/06/05 00:01:50;;;;;;;7.08;4.58;;;;;;;15.42;57.12;97200.71;127872;1093;22845;-91
2021/06/05 00:04:21;;;;;;;8.00;4.60;;;;;;;15.57;56.83;97191.63;127880;1090;22804;-91
2021/06/05 00:06:51;;;;;;;;;;;;;;;15.68;56.44;97196.52;127788;1090;113534;-91
2021/06/05 00:09:24;;;;;;;6.83;4.50;;;;;;;15.76;55.95;97200.37;127902;1090;25846;-90
2021/06/05 00:11:54;;;;;;;8.77;4.90;;;;;;;15.90;55.38;97203.84;127818;1090;113515;-91
2021/06/05 00:14:23;;;;;;;7.85;4.30;;;;;;;15.97;55.14;97198.89;127919;1090;24966;-91
2021/06/05 00:16:54;;;;;;;6.88;4.78;;;;;;;16.00;55.24;97200.97;127797;1089;113840;-95
2021/06/05 00:19:24;;;;;;;6.48;4.85;;;;;;;16.04;54.76;97203.83;127894;1091;22937;-90
2021/06/05 00:21:54;;;;;;;9.63;5.33;;;;;;;16.04;54.95;97201.95;127833;1090;23736;-92
2021/06/05 00:24:25;;;;;;;6.95;5.08;;;;;;;16.01;54.99;97205.22;127797;1090;113528;-95
2021/06/05 00:26:55;;;;;;;8.85;5.40;;;;;;;16.03;54.98;97199.58;127906;1089;22806;-91
2021/06/05 00:29:25;;;;;;;8.80;5.15;;;;;;;16.07;54.49;97205.14;127791;1093;114223;-89
2021/06/05 00:31:55;;;;;;;7.23;4.57;;;;;;;16.11;54.71;97192.75;127835;1090;35856;-90
2021/06/05 00:34:24;;;;;;;9.40;5.30;;;;;;;16.11;54.44;97198.89;127906;1090;23746;-94
2021/06/05 00:36:54;;;;;;;10.27;5.37;;;;;;;16.09;54.74;97194.93;127783;1090;114059;-90
2021/06/05 00:39:24;;;;;;;9.23;4.90;;;;;;;16.04;54.47;97193.92;127921;1088;23756;-91
2021/06/05 00:41:54;;;;;;;7.58;4.75;;;;;;;16.07;54.56;97194.44;127807;1091;114078;-95
2021/06/05 00:44:24;;;;;;;11.57;5.63;;;;;;;16.04;54.62;97196.59;127885;1090;27464;-92
2021/06/05 00:46:54;;;;;;;7.20;5.07;;;;;;;16.02;54.94;97190.76;127779;1090;113903;-91
2021/06/05 00:49:24;;;;;;;7.85;4.95;;;;;;;15.95;55.44;97198.41;127903;1093;27326;-96
2021/06/05 00:51:57;;;;;;;9.43;4.97;;;;;;;15.96;54.93;97196.52;127885;1090;24794;-92
2021/06/05 00:54:27;;;;;;;8.38;5.20;;;;;;;16.00;54.76;97184.92;127756;1093;113710;-92
2021/06/05 00:56:59;;;;;;;8.15;5.00;;;;;;;16.03;54.55;97194.23;127887;1091;22796;-96
2021/06/05 00:59:29;;;;;;;7.15;5.18;;;;;;;16.04;54.74;97191.25;127735;1090;113741;-92
2021/06/05 01:01:59;;;;;;;9.80;5.37;;;;;;;16.06;54.78;97182.95;127889;1090;22955;-91
2021/06/05 01:04:30;;;;;;;7.65;5.35;;;;;;;16.01;54.69;97186.50;127909;1089;23708;-91
2021/06/05 01:07:05;;;;;;;7.65;5.00;;;;;;;15.99;54.87;97183.34;127763;1090;113599;-91
2021/06/05 01:09:45;;;;;;;10.18;4.98;;;;;;;15.98;54.67;97180.97;127897;1090;22788;-93
2021/06/05 01:12:24;;;;;;;9.83;5.17;;;;;;;16.00;54.93;97190.27;127749;1090;114365;-90
2021/06/05 01:14:59;;;;;;;8.78;5.35;;;;;;;15.97;54.91;97177.50;127865;1090;23809;-96
2021/06/05 01:17:33;;;;;;;11.00;5.58;;;;;;;15.98;54.83;97171.06;127770;1090;113480;-91
2021/06/05 01:20:09;;;;;;;7.60;4.30;;;;;;;15.97;55.02;97166.80;127877;1090;28787;-92
2021/06/05 01:22:56;;;;;;;7.47;5.00;;;;;;;15.94;54.91;97156.71;127834;1090;114591;-90
2021/06/05 01:25:43;;;;;;;8.10;4.78;;;;;;;15.93;55.11;97157.80;127875;1093;24347;-91
2021/06/05 01:28:17;;;;;;;9.17;5.10;;;;;;;15.94;55.20;97158.59;127953;1093;23159;-92
2021/06/05 01:30:49;;;;;;;6.65;4.88;;;;;;;15.92;55.40;97150.88;127769;1090;113818;-89
2021/06/05 01:33:23;;;;;;;8.08;4.45;;;;;;;16.02;54.89;97160.55;127810;1089;24593;-91
2021/06/05 01:35:54;;;;;;;6.43;4.75;;;;;;;16.12;54.43;97148.85;127761;1090;113786;-91
2021/06/05 01:38:29;;;;;;;7.73;5.03;;;;;;;16.23;54.77;97151.02;127873;1089;25557;-91
2021/06/05 01:41:01;;;;;;;6.33;4.53;;;;;;;16.28;54.20;97155.45;127805;1091;113684;-92
2021/06/05 01:43:31;;;;;;;6.85;4.40;;;;;;;16.29;54.72;97160.50;127893;1090;26920;-91
2021/06/05 01:46:02;;;;;;;6.98;5.05;;;;;;;16.24;54.80;97159.83;127890;1090;25490;-90
2021/06/05 01:48:32;;;;;;;8.48;4.80;;;;;;;16.18;55.91;97169.04;127766;1090;114305;-91
2021/06/05 01:51:07;;;;;;;8.40;5.13;;;;;;;16.11;56.20;97161.44;127911;1090;22782;-90
2021/06/05 01:53:42;;;;;;;9.25;5.53;;;;;;;15.99;56.86;97156.59;127813;1090;114386;-94
2021/06/05 01:56:17;;;;;;;6.75;4.80;;;;;;;15.86;57.64;97159.28;128001;1090;22930;-90
2021/06/05 01:58:48;;;;;;;8.67;5.17;;;;;;;15.71;58.40;97158.50;127771;1090;113879;-90
2021/06/05 02:01:17;;;;;;;;;;;;;;;15.59;59.01;97163.54;127923;1090;22786;-91
2021/06/05 02:03:49;;;;;;;7.78;4.48;;;;;;;15.49;60.61;97166.39;127904;1090;24197;-90
2021/06/05 02:06:20;;;;;;;6.40;4.73;;;;;;;15.34;60.84;97162.13;127798;1090;114000;-92
2021/06/05 02:08:50;;;;;;;6.78;4.63;;;;;;;15.25;61.59;97158.53;127911;1090;30720;-91
2021/06/05 02:11:23;;;;;;;6.75;4.45;;;;;;;15.17;62.21;97148.52;127809;1090;114041;-90
2021/06/05 02:13:58;;;;;;;7.30;4.45;;;;;;;15.13;63.30;97150.20;127809;1090;26056;-89
2021/06/05 02:16:35;;;;;;;7.75;4.58;;;;;;;15.07;63.93;97140.70;127800;1090;22825;-89
2021/06/05 02:19:10;;;;;;;6.95;4.58;;;;;;;15.05;63.62;97142.84;127777;1090;113573;-90
2021/06/05 02:21:43;;;;;;;7.78;4.58;;;;;;;15.07;63.46;97130.81;127869;1090;22783;-93
2021/06/05 02:24:17;;;;;;;7.73;4.78;;;;;;;15.05;63.24;97132.96;127854;1090;113487;-90
2021/06/05 02:26:49;;;;;;;9.58;4.70;;;;;;;15.11;63.50;97128.34;127888;1090;25896;-91
2021/06/05 02:29:24;;;;;;;6.25;4.53;;;;;;;15.11;63.07;97125.67;127770;1090;113924;-92
2021/06/05 02:31:54;;;;;;;8.75;5.28;;;;;;;15.11;63.24;97131.02;127890;1090;26871;-91
2021/06/05 02:34:29;;;;;;;8.00;4.73;;;;;;;15.09;63.28;97133.98;127896;1090;22786;-91
2021/06/05 02:37:03;;;;;;;8.27;4.70;;;;;;;14.98;64.14;97132.56;127752;1090;113374;-92
2021/06/05 02:39:33;;;;;;;6.18;4.28;;;;;;;14.94;64.07;97122.78;127870;1090;24456;-91
2021/06/05 02:42:07;;;;;;;8.23;4.85;;;;;;;14.94;64.67;97117.44;127770;1093;113895;-93
2021/06/05 02:44:37;;;;;;;8.55;4.70;;;;;;;14.83;65.85;97109.59;127922;1093;25636;-93
2021/06/05 02:47:10;;;;;;;6.03;4.48;;;;;;;14.68;67.35;97112.52;127762;1091;113844;-94
2021/06/05 02:49:40;;;;;;;6.58;4.10;;;;;;;14.55;68.54;97121.27;127963;1090;22971;-91
2021/06/05 02:52:28;;;;;;;7.50;4.50;;;;;;;14.44;67.24;97112.62;127979;1090;26700;-91
2021/06/05 02:55:01;;;;;;;6.48;4.70;;;;;;;14.50;66.45;97106.14;127823;1090;113533;-91
2021/06/05 02:57:31;;;;;;;7.45;5.23;;;;;;;14.62;65.74;97102.20;127917;1090;23308;-90
2021/06/05 03:00:01;;;;;;;7.98;4.90;;;;;;;14.75;65.83;97102.24;127771;1093;114433;-89
2021/06/05 03:02:31;;;;;;;7.40;4.78;;;;;;;14.88;65.64;97094.56;127917;1090;23580;-90
2021/06/05 03:05:01;;;;;;;6.93;5.20;;;;;;;14.95;65.51;97095.78;127712;1090;113745;-90
2021/06/05 03:07:31;;;;;;;6.13;3.93;;;;;;;14.99;66.06;97093.30;127907;1090;26683;-89
2021/06/05 03:10:01;;;;;;;6.83;4.60;;;;;;;14.97;65.67;97087.47;127896;1093;24747;-92
2021/06/05 03:12:30;;;;;;;7.15;4.20;;;;;;;14.95;66.00;97094.98;127810;1090;113495;-91
2021/06/05 03:15:01;;;;;;;6.30;4.03;;;;;;;14.98;65.59;97099.73;127903;1093;25562;-91
2021/06/05 03:17:31;;;;;;;8.50;4.60;;;;;;;15.02;65.36;97104.19;127779;1090;113632;-91
2021/06/05 03:20:01;;;;;;;7.00;4.30;;;;;;;15.08;64.38;97113.70;127916;1092;24707;-91
2021/06/05 03:22:31;;;;;;;8.08;5.08;;;;;;;15.01;65.57;97115.16;127923;1090;23872;-90
2021/06/05 03:25:01;;;;;;;9.50;5.93;;;;;;;14.83;65.85;97120.27;127791;1090;113360;-91
2021/06/05 03:27:31;;;;;;;7.00;5.23;;;;;;;14.81;66.14;97132.33;127962;1090;24974;-91
2021/06/05 03:30:01;;;;;;;11.25;5.13;;;;;;;14.75;67.13;97142.28;127822;1090;113485;-91
2021/06/05 03:32:31;;;;;;;8.50;5.48;;;;;;;14.68;67.26;97152.55;127890;1089;24129;-90
2021/06/05 03:35:00;;;;;;;7.77;5.20;;;;;;;14.61;68.02;97157.45;127828;1092;114015;-90
2021/06/05 03:37:30;;;;;;;7.63;5.48;;;;;;;14.52;68.44;97167.20;127936;1092;24051;-91
2021/06/05 03:40:00;;;;;;;7.58;5.53;;;;;;;14.49;68.47;97170.43;127989;1090;24692;-90
2021/06/05 03:42:30;;;;;;;8.63;5.95;;;;;;;14.54;68.74;97170.38;127796;1090;113595;-89
2021/06/05 03:45:00;;;;;;;8.20;5.40;;;;;;;14.61;69.11;97180.67;127957;1090;23780;-90
2021/06/05 03:47:30;;;;;;;8.10;4.90;;;;;;;14.67;68.76;97174.98;127819;1090;114409;-91
2021/06/05 03:50:00;;;;;;;8.85;5.50;;;;;;;14.74;68.88;97185.27;127941;1090;23721;-92
2021/06/05 03:52:30;;;;;;;7.15;5.78;;;;;;;14.73;68.79;97187.16;127937;1090;22783;-91
2021/06/05 03:55:00;;;;;;;7.75;5.40;;;;;;;14.79;68.99;97196.69;127805;1089;113577;-89
2021/06/05 03:57:32;;;;;;;11.95;5.58;;;;;;;14.85;68.86;97198.18;127909;1092;22938;-91
2021/06/05 04:00:06;;;;;;;8.93;4.85;;;;;;;14.84;68.61;97199.27;127841;1090;114095;-91
2021/06/05 04:02:36;;;;;;;8.98;5.05;;;;;;;14.92;68.66;97199.67;127921;1090;22779;-90
2021/06/05 04:05:09;;;;;;;8.00;5.25;;;;;;;14.94;69.00;97194.86;127777;1090;113833;-91
2021/06/05 04:07:39;;;;;;;9.30;5.35;;;;;;;14.90;68.56;97193.83;127917;1090;26519;-91
2021/06/05 04:10:13;;;;;;;9.68;5.30;;;;;;;14.93;69.16;97198.61;127916;1090;22787;-92
2021/06/05 04:12:43;;;;;;;7.45;5.18;;;;;;;14.93;69.31;97203.95;127831;1090;113474;-89
2021/06/05 04:15:16;;;;;;;8.05;5.73;;;;;;;14.91;69.10;97206.09;127963;1090;23045;-89
2021/06/05 04:17:46;;;;;;;8.65;5.13;;;;;;;14.92;69.53;97208.50;127796;1090;113829;-88
2021/06/05 04:20:18;;;;;;;7.35;5.55;;;;;;;14.94;69.76;97200.20;127865;1090;36245;-88
2021/06/05 04:22:48;;;;;;;7.65;4.90;;;;;;;14.94;69.64;97200.20;127701;1090;114232;-88
2021/06/05 04:25:17;;;;;;;7.33;5.30;;;;;;;14.98;69.67;97201.98;127899;1093;22947;-89
2021/06/05 04:27:49;;;;;;;8.18;5.75;;;;;;;15.01;69.86;97214.75;127812;1093;22761;-89
2021/06/05 04:30:23;;;;;;;8.70;5.68;;;;;;;15.00;69.65;97221.17;127845;1090;113717;-90
2021/06/05 04:32:53;;;;;;;7.35;5.00;;;;;;;15.05;70.12;97217.63;127909;1090;22780;-90
2021/06/05 04:35:24;;;;;;;8.23;5.40;;;;;;;15.09;69.60;97224.78;127715;1093;114355;-89
2021/06/05 04:37:55;;;;;;;8.30;4.70;;;;;;;15.13;69.83;97231.11;127928;1093;23276;-89
2021/06/05 04:40:28;;;;;;;7.33;5.05;;;;;;;15.14;69.88;97224.69;127899;1093;22941;-89
2021/06/05 04:42:58;;;;;;;7.10;4.78;;;;;;;15.17;69.51;97227.85;127796;1093;113312;-89
2021/06/05 04:45:29;;;;;;;8.50;4.75;;;;;;;15.13;69.09;97222.31;127914;1093;22819;-89
2021/06/05 04:47:58;;;;;;;;;;;;;;;15.08;68.59;97223.19;127792;1093;114098;-96
2021/06/05 04:50:32;;;;;;;8.10;5.75;;;;;;;15.07;68.48;97231.50;127926;1090;21459;-90
2021/06/05 04:53:02;;;;;;;8.03;5.83;;;;;;;15.08;68.47;97235.75;127784;1090;113823;-90
2021/06/05 04:55:32;;;;;;;8.33;6.10;;;;;;;15.06;68.53;97235.23;127907;1091;22829;-90
2021/06/05 04:58:04;;;;;;;8.45;6.15;;;;;;;15.08;68.59;97225.07;127901;1090;34732;-91
2021/06/05 05:00:36;;;;;;;9.63;5.75;;;;;;;15.06;68.90;97219.20;127832;1093;113561;-90
2021/06/05 05:03:09;;;;;;;11.08;6.08;;;;;;;15.10;68.66;97228.23;127893;1093;22947;-90
2021/06/05 05:05:40;;;;;;;6.95;4.88;;;;;;;15.19;69.39;97239.03;127827;1093;113693;-90
2021/06/05 05:08:13;;;;;;;7.58;5.43;;;;;;;15.27;69.43;97231.16;127931;1090;22857;-90
2021/06/05 05:10:46;;;;;;;11.13;6.30;;;;;;;15.30;69.74;97235.91;127908;1090;114056;-89
2021/06/05 05:13:20;;;;;;;8.33;6.05;;;;;;;15.36;69.79;97233.96;127904;1090;22787;-89
2021/06/05 05:15:50;;;;;;;8.13;5.88;;;;;;;15.47;69.93;97242.57;127926;1090;22786;-90
2021/06/05 05:18:22;;;;;;;8.50;6.13;;;;;;;15.52;69.87;97237.16;127816;1090;113528;-89
2021/06/05 05:20:53;;;;;;;9.43;5.20;;;;;;;15.58;69.87;97236.76;127885;1090;26353;-90
2021/06/05 05:23:27;;;;;;;10.63;7.10;;;;;;;15.58;69.58;97241.31;127834;1090;113679;-90
2021/06/05 05:25:59;;;;;;;9.43;6.60;;;;;;;15.61;69.73;97244.22;127941;1090;22786;-89
2021/06/05 05:28:29;;;;;;;8.58;6.43;;;;;;;15.65;69.67;97239.09;127928;1089;23511;-89
2021/06/05 05:31:02;;;;;;;9.95;6.88;;;;;;;15.64;69.92;97245.53;127801;1090;113729;-90
2021/06/05 05:33:37;;;;;;;9.08;6.28;;;;;;;15.60;70.11;97229.27;127877;1090;23591;-89
2021/06/05 05:36:10;;;;;;;9.73;6.40;;;;;;;15.64;70.11;97229.48;127814;1092;114057;-89
2021/06/05 05:38:41;;;;;;;10.83;6.80;;;;;;;15.60;69.55;97223.13;127937;1090;24949;-91
2021/06/05 05:41:14;;;;;;;9.05;6.28;;;;;;;15.57;69.77;97223.69;127881;1090;114435;-90
2021/06/05 05:43:44;;;;;;;11.48;6.48;;;;;;;15.59;70.42;97226.86;128018;1090;38594;-90
2021/06/05 05:46:16;;;;;;;10.00;7.28;;;;;;;15.58;70.79;97228.73;127964;1090;22806;-91
2021/06/05 05:48:48;;;;;;;10.90;7.03;;;;;;;15.48;71.13;97241.48;127824;1093;113848;-90
2021/06/05 05:51:20;;;;;;;9.58;6.58;;;;;;;15.28;71.75;97246.09;127920;1090;22799;-91
2021/06/05 05:53:53;;;;;;;10.15;6.90;;;;;;;15.10;71.63;97245.05;127780;1088;113905;-91
2021/06/05 05:56:25;;;;;;;10.00;6.90;;;;;;;15.02;71.65;97250.25;127903;1090;24078;-89
2021/06/05 05:58:57;;;;;;;9.43;6.58;;;;;;;15.03;72.06;97255.30;127745;1090;114288;-90
2021/06/05 06:01:28;;;;;;;10.85;6.80;;;;;;;15.06;72.20;97254.73;127967;1093;23765;-89
2021/06/05 06:03:59;;;;;;;8.90;7.13;;;;;;;15.07;72.47;97255.53;127918;1092;24544;-88
2021/06/05 06:06:32;;;;;;;8.95;6.53;;;;;;;15.08;72.38;97255.23;127785;1090;113524;-89
2021/06/05 06:09:03;;;;;;;8.98;6.33;;;;;;;15.09;72.61;97251.48;127919;1092;22825;-89
2021/06/05 06:11:33;;;;;;;9.40;5.70;;;;;;;15.14;72.46;97247.92;127792;1091;113886;-89
2021/06/05 06:14:03;;;;;;;10.80;6.83;;;;;;;15.23;72.85;97246.19;127896;1090;22857;-92
2021/06/05 06:16:35;;;;;;;11.95;7.43;;;;;;;15.29;73.64;97245.01;127896;1093;32955;-93
2021/06/05 06:19:05;;;;;;;10.90;7.78;;;;;;;15.22;73.83;97244.61;127826;1090;114373;-93
2021/06/05 06:21:35;;;;;;;10.93;7.65;;;;;;;15.25;73.78;97254.70;127948;1090;25753;-92
2021/06/05 06:24:07;;;;;;;14.15;8.40;;;;;;;15.18;73.92;97248.92;127900;1090;113827;-92
2021/06/05 06:26:39;;;;;;;12.45;7.93;;;;;;;15.00;74.60;97249.75;127911;1090;23346;-89
2021/06/05 06:29:13;;;;;;;12.30;8.27;;;;;;;14.83;75.17;97240.39;127842;1090;114678;-90
2021/06/05 06:31:45;;;;;;;11.90;8.03;;;;;;;14.71;75.48;97247.25;127858;1092;22945;-89
2021/06/05 06:34:16;;;;;;;11.33;7.18;;;;;;;14.63;75.63;97250.55;127902;1093;53404;-89
2021/06/05 06:47:09;;;;;;;12.68;9.18;;;;;;;14.47;77.11;97228.63;127822;1092;63904;-90
2021/06/05 06:49:40;;;;;;;10.58;7.53;;;;;;;14.56;77.58;97232.24;127647;1093;113141;-90
2021/06/05 06:52:10;;;;;;;12.43;7.25;;;;;;;14.49;78.21;97242.47;127608;1093;23943;-90
2021/06/05 06:54:40;;;;;;;11.63;7.53;;;;;;;14.38;78.24;97222.33;127603;1093;113292;-91
2021/06/05 06:57:10;;;;;;;10.33;6.65;;;;;;;14.34;78.31;97223.96;127559;1092;24119;-91
2021/06/05 06:59:40;;;;;;;11.20;6.88;;;;;;;14.30;78.68;97217.63;127354;1093;113500;-91
2021/06/05 07:02:10;;;;;;;12.40;7.63;;;;;;;14.28;79.53;97219.79;127596;1093;29151;-93
2021/06/05 07:04:43;;;;;;;9.53;6.93;;;;;;;14.24;79.00;97217.70;127805;1093;126200;-91
2021/06/05 07:07:13;;;;;;;10.05;6.20;;;;;;;14.27;79.15;97216.33;127529;1092;113339;-92
2021/06/05 07:09:43;;;;;;;11.63;7.18;;;;;;;14.31;78.76;97228.00;127592;1093;38244;-95
2021/06/05 07:12:14;;;;;;;10.63;6.55;;;;;;;14.40;78.61;97214.83;127619;1093;113653;-94
2021/06/05 07:14:44;;;;;;;9.10;6.48;;;;;;;14.49;78.62;97210.45;127773;1093;22822;-95
2021/06/05 07:17:14;;;;;;;11.05;5.85;;;;;;;14.57;78.20;97201.81;127681;1093;25542;-92
2021/06/05 07:19:44;;;;;;;9.53;5.80;;;;;;;14.60;78.11;97198.55;127862;1093;114190;-92
2021/06/05 07:22:15;;;;;;;8.75;5.60;;;;;;;14.63;78.48;97186.50;127838;1091;23311;-91
2021/06/05 07:24:45;;;;;;;8.13;5.23;;;;;;;14.55;78.34;97177.30;127804;1093;113440;-94
2021/06/05 07:27:15;;;;;;;11.03;5.63;;;;;;;14.50;78.47;97169.38;127859;1093;26305;-92
2021/06/05 07:29:46;;;;;;;6.00;4.40;;;;;;;14.55;78.80;97166.63;127717;1092;113924;-90
2021/06/05 07:32:16;;;;;;;6.23;4.30;;;;;;;14.53;79.02;97163.45;127883;1092;25280;-92
2021/06/05 07:34:47;;;;;;;7.10;4.90;;;;;;;14.50;79.88;97172.05;127727;1093;27953;-93
2021/06/05 07:37:20;;;;;;;6.60;4.63;;;;;;;14.45;79.81;97172.09;127549;1093;113504;-91
2021/06/05 07:39:50;;;;;;;7.00;4.70;;;;;;;14.42;79.76;97159.31;127714;1093;23864;-93
2021/06/05 07:42:20;;;;;;;5.55;4.00;;;;;;;14.39;79.47;97162.56;127625;1093;113632;-92
2021/06/05 07:44:50;;;;;;;5.38;4.30;;;;;;;14.39;78.98;97152.69;127819;1093;48166;-91
2021/06/05 07:47:21;;;;;;;8.85;4.33;;;;;;;14.40;79.71;97154.27;127843;1092;33107;-91
2021/06/05 07:49:52;;;;;;;5.90;4.37;;;;;;;14.36;79.13;97157.81;127760;1093;113768;-91
2021/06/05 07:52:24;;;;;;;6.83;4.28;;;;;;;14.36;79.33;97150.60;127636;1093;26264;-92
2021/06/05 07:54:56;;;;;;;5.88;3.98;;;;;;;14.38;79.52;97151.10;127687;1093;113765;-92
2021/06/05 07:57:26;;;;;;;4.33;3.45;;;;;;;14.42;79.10;97140.64;127588;1093;25494;-92
2021/06/05 07:59:56;;;;;;;4.65;3.68;;;;;;;14.42;79.22;97137.97;127525;1093;114236;-92
2021/06/05 08:02:26;;;;;;;4.43;3.00;;;;;;;14.41;79.69;97137.18;127590;1092;23075;-92
2021/06/05 08:04:56;;;;;;;6.63;3.80;;;;;;;14.41;79.89;97144.39;127597;1093;69254;-91
2021/06/05 08:07:26;;;;;;;6.05;3.90;;;;;;;14.48;80.00;97144.83;127738;1093;113349;-92
2021/06/05 08:09:56;;;;;;;6.68;3.98;;;;;;;14.61;79.27;97144.10;127604;1093;25581;-92
2021/06/05 08:12:26;;;;;;;5.75;3.75;;;;;;;14.72;79.23;97140.20;127647;1093;113362;-91
2021/06/05 08:14:56;;;;;;;5.67;3.10;;;;;;;14.91;79.29;97148.16;127557;1093;30241;-93
2021/06/05 08:17:27;;;;;;;6.10;3.20;;;;;;;15.14;78.61;97138.43;127515;1092;24945;-91
2021/06/05 08:19:57;;;;;;;5.73;2.55;;;;;;;15.27;77.24;97139.54;127564;1093;112952;-93
2021/06/05 08:22:27;;;;;;;3.30;2.70;;;;;;;15.27;76.79;97132.32;127661;1093;22785;-88
2021/06/05 08:24:57;;;;;;;6.55;3.53;;;;;;;15.28;76.60;97131.23;127492;1093;112644;-96
2021/06/05 08:27:28;;;;;;;3.90;2.88;;;;;;;15.23;76.01;97131.33;127809;1092;22784;-92
2021/06/05 08:29:58;;;;;;;6.80;3.58;;;;;;;15.15;76.75;97142.69;127703;1093;113930;-94
2021/06/05 08:32:29;;;;;;;5.88;3.63;;;;;;;15.11;77.65;97131.02;127668;1090;22879;-92
2021/06/05 08:35:00;;;;;;;5.95;3.18;;;;;;;15.11;77.81;97137.14;127595;1093;43465;-94
2021/06/05 08:37:30;;;;;;;4.38;3.20;;;;;;;15.07;78.03;97138.03;127610;1093;113758;-91
2021/06/05 08:40:00;;;;;;;5.03;3.55;;;;;;;15.02;78.30;97136.23;127624;1093;27059;-91
2021/06/05 08:42:41;;;;;;;5.03;3.38;;;;;;;15.05;78.86;97132.17;127649;1092;113849;-92
2021/06/05 08:45:13;;;;;;;4.93;3.50;;;;;;;15.06;79.45;97133.75;127666;1093;22790;-93
2021/06/05 08:47:44;;;;;;;11.20;4.00;;;;;;;15.03;80.19;97129.00;127382;1093;113710;-93
2021/06/05 08:50:15;;;;;;;;;;;;;;;14.94;79.66;97136.91;127941;1093;24711;-93
2021/06/05 08:52:54;;;;;;;7.10;4.38;;;;;;;14.96;80.04;97126.73;127769;1093;22130;-96
2021/06/05 08:55:30;;;;;;;9.23;5.35;;;;;;;14.91;79.75;97128.67;127674;1093;114307;-94
2021/06/05 08:58:06;;;;;;;8.20;5.48;;;;;;;14.84;80.42;97135.20;127772;1093;25057;-94
2021/06/05 09:00:40;;;;;;;9.38;6.38;;;;;;;14.84;80.99;97127.19;127571;1093;113371;-95
2021/06/05 09:03:14;;;;;;;9.78;5.28;;;;;;;14.88;81.43;97118.59;127749;1093;24257;-93
2021/06/05 09:05:50;;;;;;;8.90;5.55;;;;;;;14.89;81.79;97128.97;127747;1093;114096;-94
2021/06/05 09:08:21;;;;;;;8.60;5.47;;;;;;;15.03;81.68;97127.13;127585;1093;30149;-92
2021/06/05 09:10:55;;;;;;;10.38;6.10;;;;;;;15.28;81.91;97120.55;127841;1093;26012;-93
2021/06/05 09:13:25;;;;;;;10.25;6.25;;;;;;;15.54;82.05;97112.05;127616;1093;113675;-92
2021/06/05 09:16:23;;;;;;;9.53;6.58;;;;;;;15.83;80.66;97112.55;127775;1093;22816;-90
2021/06/05 09:18:57;;;;;;;10.20;6.13;;;;;;;16.24;80.48;97109.79;127463;1093;120341;-90
2021/06/05 09:21:32;;;;;;;8.05;6.55;;;;;;;16.54;79.08;97110.97;127569;1093;27268;-91
2021/06/05 09:24:28;;;;;;;9.18;6.18;;;;;;;16.63;78.89;97111.83;127459;1093;113553;-91
2021/06/05 09:27:11;;;;;;;8.28;6.55;;;;;;;16.87;77.75;97111.52;127553;1093;22803;-94
2021/06/05 09:29:52;;;;;;;9.05;6.18;;;;;;;17.17;77.58;97099.26;127819;1092;114200;-91
2021/06/05 09:32:24;;;;;;;9.23;6.15;;;;;;;17.36;76.59;97090.19;127785;1093;25482;-91
2021/06/05 09:34:57;;;;;;;9.83;5.93;;;;;;;17.64;75.86;97086.17;127644;1093;22823;-92
2021/06/05 09:37:34;;;;;;;9.40;6.03;;;;;;;17.78;74.58;97081.50;127675;1093;113806;-95
2021/06/05 09:40:23;;;;;;;9.18;5.63;;;;;;;17.83;74.74;97074.41;127841;1093;29421;-93
2021/06/05 09:42:56;;;;;;;8.20;5.67;;;;;;;17.90;73.20;97080.11;127978;1093;113480;-93
2021/06/05 09:45:36;;;;;;;9.65;6.08;;;;;;;17.97;72.07;97078.52;128255;1093;52659;-95
2021/06/05 09:48:25;;;;;;;6.28;5.28;;;;;;;18.06;71.74;97067.81;127660;1092;114145;-93
2021/06/05 09:51:00;;;;;;;6.53;4.28;;;;;;;18.34;71.13;97071.77;128096;1092;25447;-90
2021/06/05 09:53:33;;;;;;;8.93;4.85;;;;;;;18.62;70.57;97074.11;128332;1093;24695;-89
2021/06/05 09:56:23;;;;;;;7.98;5.00;;;;;;;18.67;70.16;97073.95;127927;1093;113176;-94
2021/06/05 09:59:05;;;;;;;7.45;4.68;;;;;;;18.52;69.39;97074.42;127744;1093;27152;-94
2021/06/05 10:01:37;;;;;;;7.00;4.50;;;;;;;18.62;69.79;97060.67;127887;1093;114004;-93
2021/06/05 10:04:18;;;;;;;5.73;4.78;;;;;;;18.84;68.82;97070.44;128084;1092;22777;-92
2021/06/05 10:06:52;;;;;;;9.05;4.40;;;;;;;18.86;68.98;97066.35;127905;1093;113441;-92
2021/06/05 17:05:36;;;;;;;4.70;3.58;;;;;;;20.70;63.41;96861.76;127872;1093;25906;-93
2021/06/05 17:08:07;;;;;;;5.88;4.40;;;;;;;20.33;63.37;96854.74;127528;1093;113737;-91
2021/06/05 17:10:39;;;;;;;5.53;3.68;;;;;;;19.78;63.13;96842.51;127563;1093;23775;-92
2021/06/05 17:13:12;;;;;;;6.03;4.20;;;;;;;19.50;64.61;96853.80;127492;1093;24703;-91
2021/06/05 17:15:45;;;;;;;6.30;4.00;;;;;;;19.60;64.41;96847.27;127555;1093;113170;-91
2021/06/05 17:18:17;;;;;;;5.65;4.10;;;;;;;19.64;64.33;96853.55;127568;1093;23793;-91
2021/06/05 17:20:48;;;;;;;6.00;4.00;;;;;;;19.82;64.19;96846.10;127413;1093;113171;-92
2021/06/05 17:23:21;;;;;;;4.90;3.95;;;;;;;19.90;63.63;96842.55;127560;1093;37011;-92
2021/06/05 17:25:52;;;;;;;4.10;3.60;;;;;;;20.02;63.24;96834.51;127585;1093;113480;-90
2021/06/05 17:28:24;;;;;;;5.73;3.90;;;;;;;20.03;62.43;96841.46;127729;1092;24101;-91
2021/06/05 17:30:55;;;;;;;6.30;3.60;;;;;;;19.90;62.11;96849.83;127601;1093;27495;-92
2021/06/05 17:33:28;;;;;;;4.48;3.30;;;;;;;19.75;61.46;96845.87;127609;1093;113481;-91
2021/06/05 17:35:59;;;;;;;4.28;3.30;;;;;;;19.27;60.86;96844.49;127580;1093;24613;-91
2021/06/05 17:38:30;;;;;;;6.18;3.33;;;;;;;18.70;61.27;96842.34;127455;1093;112613;-92
2021/06/05 17:41:02;;;;;;;3.75;2.88;;;;;;;18.34;61.70;96856.23;127533;1093;29020;-93
2021/06/05 17:43:35;;;;;;;3.75;3.03;;;;;;;18.00;62.07;96857.12;127469;1093;26129;-91
2021/06/05 17:46:07;;;;;;;4.28;3.28;;;;;;;17.82;62.41;96867.10;127607;1093;113101;-94
2021/06/05 17:48:37;;;;;;;4.48;3.30;;;;;;;17.65;62.68;96862.52;127848;1093;25518;-92
2021/06/05 17:51:11;;;;;;;4.28;3.50;;;;;;;17.50;62.56;96869.16;127710;1093;113353;-92
2021/06/05 17:53:47;;;;;;;3.78;3.20;;;;;;;17.46;62.95;96859.39;127619;1093;29676;-92
2021/06/05 17:56:17;;;;;;;3.40;2.95;;;;;;;17.28;63.06;96868.52;127748;1093;113869;-92
2021/06/05 17:58:47;;;;;;;4.23;3.27;;;;;;;17.11;62.94;96863.94;127834;1093;24238;-90
2021/06/05 18:01:19;;;;;;;3.23;2.93;;;;;;;16.98;63.42;96857.61;127562;1093;25771;-91
2021/06/05 18:03:53;;;;;;;3.88;3.00;;;;;;;16.73;63.57;96866.38;127501;1093;113532;-91
2021/06/05 18:06:24;;;;;;;4.63;2.83;;;;;;;16.68;64.12;96867.32;127599;1093;24404;-91
2021/06/05 18:08:56;;;;;;;3.55;3.05;;;;;;;16.52;64.25;96866.92;127334;1093;113532;-92
2021/06/05 18:11:29;;;;;;;3.95;3.00;;;;;;;16.51;64.65;96873.38;127427;1092;31566;-94
